sensor_id;sensor_type;location;lat;lon;timestamp;pressure;altitude;pressure_sealevel;temperature;humidity
5691;BME280;2870;42.680;23.364;2023-07-29T00:01:44;94975.09;;;21.26;57.87
5691;BME280;2870;42.680;23.364;2023-07-29T00:04:11;94983.06;;;21.27;58.74
5691;BME280;2870;42.680;23.364;2023-07-29T00:06:38;94979.13;;;21.21;58.90
5691;BME280;2870;42.680;23.364;2023-07-29T00:09:05;94984.31;;;21.24;59.20
5691;BME280;2870;42.680;23.364;2023-07-29T00:11:32;94982.09;;;21.23;58.34
5691;BME280;2870;42.680;23.364;2023-07-29T00:14:00;94950.44;;;20.89;58.54
5691;BME280;2870;42.680;23.364;2023-07-29T00:16:28;94986.44;;;21.10;59.25
5691;BME280;2870;42.680;23.364;2023-07-29T00:18:54;94983.81;;;21.00;59.21
5691;BME280;2870;42.680;23.364;2023-07-29T00:21:21;94980.44;;;20.90;59.64
5691;BME280;2870;42.680;23.364;2023-07-29T00:23:48;94984.97;;;20.81;60.02
5691;BME280;2870;42.680;23.364;2023-07-29T00:28:41;94983.72;;;20.71;60.15
5691;BME280;2870;42.680;23.364;2023-07-29T00:31:10;94993.53;;;20.68;60.63
5691;BME280;2870;42.680;23.364;2023-07-29T00:33:37;94990.34;;;20.61;60.81
5691;BME280;2870;42.680;23.364;2023-07-29T00:36:04;94982.00;;;20.52;61.06
5691;BME280;2870;42.680;23.364;2023-07-29T00:38:31;94970.28;;;20.46;61.54
5691;BME280;2870;42.680;23.364;2023-07-29T00:40:57;94968.97;;;20.35;61.88
5691;BME280;2870;42.680;23.364;2023-07-29T00:43:24;94969.34;;;20.16;62.09
5691;BME280;2870;42.680;23.364;2023-07-29T00:45:51;94971.06;;;20.21;62.35
5691;BME280;2870;42.680;23.364;2023-07-29T00:48:20;94961.38;;;20.26;62.75
5691;BME280;2870;42.680;23.364;2023-07-29T00:50:47;94960.09;;;20.29;63.24
5691;BME280;2870;42.680;23.364;2023-07-29T00:53:14;94965.91;;;20.31;62.91
5691;BME280;2870;42.680;23.364;2023-07-29T00:55:40;94961.97;;;20.24;62.56
5691;BME280;2870;42.680;23.364;2023-07-29T00:58:08;94959.44;;;20.30;63.13
5691;BME280;2870;42.680;23.364;2023-07-29T01:00:35;94963.25;;;20.35;62.91
5691;BME280;2870;42.680;23.364;2023-07-29T01:03:02;94961.88;;;20.36;62.98
5691;BME280;2870;42.680;23.364;2023-07-29T01:05:36;94959.81;;;20.36;62.50
5691;BME280;2870;42.680;23.364;2023-07-29T01:08:14;94963.81;;;20.31;62.31
5691;BME280;2870;42.680;23.364;2023-07-29T01:10:53;94955.25;;;20.31;62.64
5691;BME280;2870;42.680;23.364;2023-07-29T01:13:26;94957.25;;;20.29;63.47
5691;BME280;2870;42.680;23.364;2023-07-29T01:16:00;94957.06;;;20.38;62.69
5691;BME280;2870;42.680;23.364;2023-07-29T01:18:31;94962.00;;;20.38;62.88
5691;BME280;2870;42.680;23.364;2023-07-29T01:21:03;94956.72;;;20.32;63.13
5691;BME280;2870;42.680;23.364;2023-07-29T01:23:33;94963.06;;;20.31;62.99
5691;BME280;2870;42.680;23.364;2023-07-29T01:26:00;94971.47;;;20.29;63.99
5691;BME280;2870;42.680;23.364;2023-07-29T01:28:28;94970.94;;;20.19;64.92
5691;BME280;2870;42.680;23.364;2023-07-29T01:30:59;94965.13;;;20.17;65.08
5691;BME280;2870;42.680;23.364;2023-07-29T01:33:32;94965.94;;;20.05;64.34
5691;BME280;2870;42.680;23.364;2023-07-29T01:36:03;94963.00;;;20.03;64.58
5691;BME280;2870;42.680;23.364;2023-07-29T01:38:35;94956.78;;;20.07;64.57
5691;BME280;2870;42.680;23.364;2023-07-29T01:41:03;94926.00;;;19.78;63.56
5691;BME280;2870;42.680;23.364;2023-07-29T01:43:30;94957.91;;;20.02;63.81
5691;BME280;2870;42.680;23.364;2023-07-29T01:45:57;94957.50;;;20.07;63.68
5691;BME280;2870;42.680;23.364;2023-07-29T01:48:24;94959.63;;;20.07;63.29
5691;BME280;2870;42.680;23.364;2023-07-29T01:50:52;94959.28;;;20.01;62.14
5691;BME280;2870;42.680;23.364;2023-07-29T01:53:19;94971.22;;;19.97;62.31
5691;BME280;2870;42.680;23.364;2023-07-29T01:55:48;94958.13;;;19.92;62.01
5691;BME280;2870;42.680;23.364;2023-07-29T01:58:14;94963.28;;;19.96;61.73
5691;BME280;2870;42.680;23.364;2023-07-29T02:03:18;94959.13;;;19.85;62.27
5691;BME280;2870;42.680;23.364;2023-07-29T02:05:45;94961.88;;;19.83;62.91
5691;BME280;2870;42.680;23.364;2023-07-29T02:08:12;94968.28;;;19.83;63.44
5691;BME280;2870;42.680;23.364;2023-07-29T02:10:39;94969.66;;;19.82;63.66
5691;BME280;2870;42.680;23.364;2023-07-29T02:13:08;94967.13;;;19.75;63.69
5691;BME280;2870;42.680;23.364;2023-07-29T02:15:34;94964.38;;;19.77;63.68
5691;BME280;2870;42.680;23.364;2023-07-29T02:18:01;94964.28;;;19.75;63.81
5691;BME280;2870;42.680;23.364;2023-07-29T02:20:28;94981.00;;;19.69;64.30
5691;BME280;2870;42.680;23.364;2023-07-29T02:22:55;94972.34;;;19.67;64.22
5691;BME280;2870;42.680;23.364;2023-07-29T02:25:22;94971.84;;;19.70;64.65
5691;BME280;2870;42.680;23.364;2023-07-29T02:27:49;94972.88;;;19.63;64.06
5691;BME280;2870;42.680;23.364;2023-07-29T02:30:17;94964.84;;;19.59;64.91
5691;BME280;2870;42.680;23.364;2023-07-29T02:32:44;94974.38;;;19.52;64.80
5691;BME280;2870;42.680;23.364;2023-07-29T02:35:12;94966.97;;;19.47;64.80
5691;BME280;2870;42.680;23.364;2023-07-29T02:37:39;94970.69;;;19.38;65.62
5691;BME280;2870;42.680;23.364;2023-07-29T02:40:07;94969.56;;;19.43;65.52
5691;BME280;2870;42.680;23.364;2023-07-29T02:42:34;94971.72;;;19.56;65.54
5691;BME280;2870;42.680;23.364;2023-07-29T02:45:00;94971.38;;;19.50;65.37
5691;BME280;2870;42.680;23.364;2023-07-29T02:47:29;94963.00;;;19.52;64.64
5691;BME280;2870;42.680;23.364;2023-07-29T02:49:55;94971.91;;;19.58;64.36
5691;BME280;2870;42.680;23.364;2023-07-29T02:52:22;94964.19;;;19.61;64.72
5691;BME280;2870;42.680;23.364;2023-07-29T02:54:49;94971.91;;;19.58;64.60
5691;BME280;2870;42.680;23.364;2023-07-29T02:57:16;94974.84;;;19.61;64.22
5691;BME280;2870;42.680;23.364;2023-07-29T02:59:43;94973.25;;;19.57;64.55
5691;BME280;2870;42.680;23.364;2023-07-29T03:02:11;94971.53;;;19.52;66.43
5691;BME280;2870;42.680;23.364;2023-07-29T03:04:39;94977.72;;;19.49;66.17
5691;BME280;2870;42.680;23.364;2023-07-29T03:07:06;94978.72;;;19.42;67.02
5691;BME280;2870;42.680;23.364;2023-07-29T03:09:33;94987.75;;;19.38;67.35
5691;BME280;2870;42.680;23.364;2023-07-29T03:12:00;94984.31;;;19.28;67.35
5691;BME280;2870;42.680;23.364;2023-07-29T03:14:27;94990.66;;;19.26;67.27
5691;BME280;2870;42.680;23.364;2023-07-29T03:16:54;95002.06;;;19.15;68.40
5691;BME280;2870;42.680;23.364;2023-07-29T03:19:20;94999.97;;;19.03;69.63
5691;BME280;2870;42.680;23.364;2023-07-29T03:21:49;94996.53;;;18.93;69.48
5691;BME280;2870;42.680;23.364;2023-07-29T03:24:16;94993.31;;;18.87;69.68
5691;BME280;2870;42.680;23.364;2023-07-29T03:26:42;94982.34;;;18.70;69.62
5691;BME280;2870;42.680;23.364;2023-07-29T03:29:09;94992.34;;;18.71;70.35
5691;BME280;2870;42.680;23.364;2023-07-29T03:31:36;94991.72;;;18.61;70.96
5691;BME280;2870;42.680;23.364;2023-07-29T03:34:02;94998.63;;;18.58;70.75
5691;BME280;2870;42.680;23.364;2023-07-29T03:36:29;95005.41;;;18.64;69.93
5691;BME280;2870;42.680;23.364;2023-07-29T03:38:57;95001.47;;;18.46;69.90
5691;BME280;2870;42.680;23.364;2023-07-29T03:41:25;95002.94;;;18.35;70.72
5691;BME280;2870;42.680;23.364;2023-07-29T03:43:52;94994.53;;;18.49;71.14
5691;BME280;2870;42.680;23.364;2023-07-29T03:46:19;95004.69;;;18.52;71.39
5691;BME280;2870;42.680;23.364;2023-07-29T03:48:47;94999.38;;;18.58;70.35
5691;BME280;2870;42.680;23.364;2023-07-29T03:51:14;94999.47;;;18.48;70.02
5691;BME280;2870;42.680;23.364;2023-07-29T03:53:41;95002.09;;;18.44;71.62
5691;BME280;2870;42.680;23.364;2023-07-29T03:56:09;95004.94;;;18.56;70.04
5691;BME280;2870;42.680;23.364;2023-07-29T03:58:36;94998.75;;;18.48;70.05
5691;BME280;2870;42.680;23.364;2023-07-29T04:01:03;94995.13;;;18.12;70.53
5691;BME280;2870;42.680;23.364;2023-07-29T04:03:29;95001.66;;;18.15;70.84
5691;BME280;2870;42.680;23.364;2023-07-29T04:05:56;94990.81;;;18.23;71.01
5691;BME280;2870;42.680;23.364;2023-07-29T04:08:23;95003.41;;;18.20;71.14
5691;BME280;2870;42.680;23.364;2023-07-29T04:10:50;95011.06;;;18.29;70.64
5691;BME280;2870;42.680;23.364;2023-07-29T04:13:18;95007.84;;;18.23;70.69
5691;BME280;2870;42.680;23.364;2023-07-29T04:15:45;95008.34;;;18.19;70.75
5691;BME280;2870;42.680;23.364;2023-07-29T04:18:12;94955.00;;;17.94;70.97
5691;BME280;2870;42.680;23.364;2023-07-29T04:20:38;95011.19;;;18.43;70.11
5691;BME280;2870;42.680;23.364;2023-07-29T04:23:05;95012.81;;;18.58;68.87
5691;BME280;2870;42.680;23.364;2023-07-29T04:25:32;95010.63;;;18.68;68.51
5691;BME280;2870;42.680;23.364;2023-07-29T04:27:59;95010.50;;;18.89;68.35
5691;BME280;2870;42.680;23.364;2023-07-29T04:30:29;95006.53;;;18.71;67.84
5691;BME280;2870;42.680;23.364;2023-07-29T04:32:56;95011.84;;;18.65;68.25
5691;BME280;2870;42.680;23.364;2023-07-29T04:35:23;95003.09;;;18.84;69.36
5691;BME280;2870;42.680;23.364;2023-07-29T04:37:50;95007.38;;;19.09;67.58
5691;BME280;2870;42.680;23.364;2023-07-29T04:40:16;95014.41;;;19.19;67.36
5691;BME280;2870;42.680;23.364;2023-07-29T04:42:43;95019.19;;;19.28;66.21
5691;BME280;2870;42.680;23.364;2023-07-29T04:45:10;95024.63;;;19.36;66.08
5691;BME280;2870;42.680;23.364;2023-07-29T04:47:38;95015.19;;;19.45;66.56
5691;BME280;2870;42.680;23.364;2023-07-29T04:50:06;95007.78;;;19.52;65.28
5691;BME280;2870;42.680;23.364;2023-07-29T04:52:33;95016.16;;;19.62;65.69
5691;BME280;2870;42.680;23.364;2023-07-29T04:55:00;95022.03;;;19.77;64.90
5691;BME280;2870;42.680;23.364;2023-07-29T04:57:27;95023.59;;;19.92;63.38
5691;BME280;2870;42.680;23.364;2023-07-29T04:59:54;95019.59;;;19.97;64.00
5691;BME280;2870;42.680;23.364;2023-07-29T05:02:21;95022.56;;;19.99;62.28
5691;BME280;2870;42.680;23.364;2023-07-29T05:04:49;95028.59;;;20.05;63.07
5691;BME280;2870;42.680;23.364;2023-07-29T05:07:16;95032.91;;;20.06;62.65
5691;BME280;2870;42.680;23.364;2023-07-29T05:09:43;95043.09;;;20.23;62.87
5691;BME280;2870;42.680;23.364;2023-07-29T05:12:09;95032.44;;;20.24;61.73
5691;BME280;2870;42.680;23.364;2023-07-29T05:14:36;95033.22;;;20.38;61.65
5691;BME280;2870;42.680;23.364;2023-07-29T05:17:03;95037.88;;;20.45;61.42
5691;BME280;2870;42.680;23.364;2023-07-29T05:19:30;95037.66;;;20.41;61.18
5691;BME280;2870;42.680;23.364;2023-07-29T05:21:58;95039.63;;;20.50;60.95
5691;BME280;2870;42.680;23.364;2023-07-29T05:24:25;95038.25;;;20.51;61.17
5691;BME280;2870;42.680;23.364;2023-07-29T05:26:51;95031.34;;;20.43;60.96
5691;BME280;2870;42.680;23.364;2023-07-29T05:29:18;95032.03;;;20.55;60.73
5691;BME280;2870;42.680;23.364;2023-07-29T05:31:45;95043.25;;;20.78;60.47
5691;BME280;2870;42.680;23.364;2023-07-29T05:34:12;95047.16;;;20.85;59.77
5691;BME280;2870;42.680;23.364;2023-07-29T05:36:38;95043.78;;;21.02;59.59
5691;BME280;2870;42.680;23.364;2023-07-29T05:39:07;95048.97;;;21.20;59.52
5691;BME280;2870;42.680;23.364;2023-07-29T05:41:34;95055.97;;;21.30;59.36
5691;BME280;2870;42.680;23.364;2023-07-29T05:44:01;95050.25;;;21.16;59.39
5691;BME280;2870;42.680;23.364;2023-07-29T05:46:28;95054.16;;;21.37;59.78
5691;BME280;2870;42.680;23.364;2023-07-29T05:48:54;95046.13;;;21.47;60.59
5691;BME280;2870;42.680;23.364;2023-07-29T05:51:21;95052.88;;;21.67;59.46
5691;BME280;2870;42.680;23.364;2023-07-29T05:53:48;95051.28;;;21.64;59.90
5691;BME280;2870;42.680;23.364;2023-07-29T05:56:16;95052.00;;;21.65;60.94
5691;BME280;2870;42.680;23.364;2023-07-29T05:58:43;95058.47;;;21.95;58.97
5691;BME280;2870;42.680;23.364;2023-07-29T06:01:09;95055.16;;;21.85;58.86
5691;BME280;2870;42.680;23.364;2023-07-29T06:03:36;95051.13;;;21.90;59.49
5691;BME280;2870;42.680;23.364;2023-07-29T06:06:03;95055.19;;;22.01;57.86
5691;BME280;2870;42.680;23.364;2023-07-29T06:08:30;95061.19;;;22.20;58.55
5691;BME280;2870;42.680;23.364;2023-07-29T06:10:59;95051.47;;;22.41;58.37
5691;BME280;2870;42.680;23.364;2023-07-29T06:13:27;95054.94;;;22.40;57.99
5691;BME280;2870;42.680;23.364;2023-07-29T06:15:54;95051.03;;;22.17;58.19
5691;BME280;2870;42.680;23.364;2023-07-29T06:18:21;95054.22;;;22.55;57.33
5691;BME280;2870;42.680;23.364;2023-07-29T06:20:48;95057.19;;;22.73;58.24
5691;BME280;2870;42.680;23.364;2023-07-29T06:23:15;95048.16;;;22.79;56.68
5691;BME280;2870;42.680;23.364;2023-07-29T06:25:42;95045.56;;;22.85;56.64
5691;BME280;2870;42.680;23.364;2023-07-29T06:28:09;95048.94;;;22.95;55.31
5691;BME280;2870;42.680;23.364;2023-07-29T06:30:38;95052.63;;;22.97;55.23
5691;BME280;2870;42.680;23.364;2023-07-29T06:33:04;95041.69;;;23.25;55.13
5691;BME280;2870;42.680;23.364;2023-07-29T06:35:31;95044.03;;;23.47;54.69
5691;BME280;2870;42.680;23.364;2023-07-29T06:37:58;95043.69;;;23.54;54.38
5691;BME280;2870;42.680;23.364;2023-07-29T06:40:25;95033.84;;;23.60;53.24
5691;BME280;2870;42.680;23.364;2023-07-29T06:42:51;95028.34;;;23.82;53.71
5691;BME280;2870;42.680;23.364;2023-07-29T06:45:18;95028.34;;;23.99;50.71
5691;BME280;2870;42.680;23.364;2023-07-29T06:47:46;95030.41;;;24.32;51.66
5691;BME280;2870;42.680;23.364;2023-07-29T06:50:13;95025.47;;;23.82;51.33
5691;BME280;2870;42.680;23.364;2023-07-29T06:52:40;95028.03;;;24.09;52.10
5691;BME280;2870;42.680;23.364;2023-07-29T06:55:07;95029.19;;;24.38;51.44
5691;BME280;2870;42.680;23.364;2023-07-29T06:57:34;95027.53;;;24.50;50.70
5691;BME280;2870;42.680;23.364;2023-07-29T07:00:01;95029.28;;;24.40;51.09
5691;BME280;2870;42.680;23.364;2023-07-29T07:02:28;95026.13;;;24.69;52.38
5691;BME280;2870;42.680;23.364;2023-07-29T07:04:57;95024.78;;;24.72;50.92
5691;BME280;2870;42.680;23.364;2023-07-29T07:07:23;95030.00;;;24.58;49.54
5691;BME280;2870;42.680;23.364;2023-07-29T07:09:50;95024.78;;;24.35;50.01
5691;BME280;2870;42.680;23.364;2023-07-29T07:12:17;95028.44;;;24.19;49.98
5691;BME280;2870;42.680;23.364;2023-07-29T07:14:44;95022.75;;;24.75;49.68
5691;BME280;2870;42.680;23.364;2023-07-29T07:17:10;95035.13;;;24.99;49.60
5691;BME280;2870;42.680;23.364;2023-07-29T07:19:37;95028.41;;;25.30;49.15
5691;BME280;2870;42.680;23.364;2023-07-29T07:22:05;95030.72;;;25.56;48.35
5691;BME280;2870;42.680;23.364;2023-07-29T07:24:32;95042.19;;;25.56;47.67
5691;BME280;2870;42.680;23.364;2023-07-29T07:26:59;95024.22;;;25.55;47.59
5691;BME280;2870;42.680;23.364;2023-07-29T07:29:25;95027.00;;;25.73;46.92
5691;BME280;2870;42.680;23.364;2023-07-29T07:31:53;95025.53;;;25.72;47.31
5691;BME280;2870;42.680;23.364;2023-07-29T07:34:21;94975.38;;;25.33;47.51
5691;BME280;2870;42.680;23.364;2023-07-29T07:36:48;95029.97;;;26.19;46.73
5691;BME280;2870;42.680;23.364;2023-07-29T07:39:16;95027.38;;;26.27;45.31
5691;BME280;2870;42.680;23.364;2023-07-29T07:41:43;95022.94;;;26.46;45.81
5691;BME280;2870;42.680;23.364;2023-07-29T07:44:09;95019.13;;;26.39;46.45
5691;BME280;2870;42.680;23.364;2023-07-29T07:46:40;95028.28;;;26.56;45.40
5691;BME280;2870;42.680;23.364;2023-07-29T07:49:07;95026.44;;;26.90;43.70
5691;BME280;2870;42.680;23.364;2023-07-29T07:51:34;95027.22;;;27.17;42.73
5691;BME280;2870;42.680;23.364;2023-07-29T07:54:01;95027.13;;;27.13;42.24
5691;BME280;2870;42.680;23.364;2023-07-29T07:56:29;95019.13;;;27.63;42.68
5691;BME280;2870;42.680;23.364;2023-07-29T07:58:56;95027.13;;;27.93;39.89
5691;BME280;2870;42.680;23.364;2023-07-29T08:01:23;95033.59;;;28.21;40.07
5691;BME280;2870;42.680;23.364;2023-07-29T08:03:50;95028.88;;;28.34;40.00
5691;BME280;2870;42.680;23.364;2023-07-29T08:06:16;95025.03;;;28.54;38.75
5691;BME280;2870;42.680;23.364;2023-07-29T08:08:43;95026.44;;;29.19;37.93
5691;BME280;2870;42.680;23.364;2023-07-29T08:11:10;95034.06;;;29.38;37.49
5691;BME280;2870;42.680;23.364;2023-07-29T08:13:38;95033.47;;;29.82;37.61
5691;BME280;2870;42.680;23.364;2023-07-29T08:16:05;95026.44;;;29.93;36.57
5691;BME280;2870;42.680;23.364;2023-07-29T08:18:32;95029.13;;;30.23;36.43
5691;BME280;2870;42.680;23.364;2023-07-29T08:21:00;95033.72;;;30.83;35.56
5691;BME280;2870;42.680;23.364;2023-07-29T08:23:28;95038.59;;;30.70;36.16
5691;BME280;2870;42.680;23.364;2023-07-29T08:25:57;95035.06;;;31.28;33.26
5691;BME280;2870;42.680;23.364;2023-07-29T08:28:27;95001.91;;;31.44;32.61
5691;BME280;2870;42.680;23.364;2023-07-29T08:30:55;95032.56;;;32.34;32.25
5691;BME280;2870;42.680;23.364;2023-07-29T08:33:22;95035.28;;;32.15;32.33
5691;BME280;2870;42.680;23.364;2023-07-29T08:35:49;95030.00;;;31.29;32.64
5691;BME280;2870;42.680;23.364;2023-07-29T08:38:15;95019.47;;;31.01;33.56
5691;BME280;2870;42.680;23.364;2023-07-29T08:40:45;95018.88;;;31.09;33.59
5691;BME280;2870;42.680;23.364;2023-07-29T08:43:14;95023.75;;;31.53;33.32
5691;BME280;2870;42.680;23.364;2023-07-29T08:45:44;95019.16;;;31.94;31.69
5691;BME280;2870;42.680;23.364;2023-07-29T08:48:12;95020.31;;;31.69;32.27
5691;BME280;2870;42.680;23.364;2023-07-29T08:50:44;95014.34;;;32.23;31.68
5691;BME280;2870;42.680;23.364;2023-07-29T08:53:10;95023.66;;;32.13;31.36
5691;BME280;2870;42.680;23.364;2023-07-29T08:55:37;95012.34;;;32.46;33.11
5691;BME280;2870;42.680;23.364;2023-07-29T08:58:05;95009.53;;;32.58;31.94
5691;BME280;2870;42.680;23.364;2023-07-29T09:00:32;95002.72;;;32.23;31.25
5691;BME280;2870;42.680;23.364;2023-07-29T09:02:59;95006.03;;;32.76;32.36
5691;BME280;2870;42.680;23.364;2023-07-29T09:05:34;95009.19;;;33.19;31.70
5691;BME280;2870;42.680;23.364;2023-07-29T09:08:02;95014.97;;;33.15;30.22
5691;BME280;2870;42.680;23.364;2023-07-29T09:10:29;95011.25;;;32.98;30.25
5691;BME280;2870;42.680;23.364;2023-07-29T09:12:56;94998.00;;;32.70;30.81
5691;BME280;2870;42.680;23.364;2023-07-29T09:15:32;94993.31;;;33.42;29.00
5691;BME280;2870;42.680;23.364;2023-07-29T09:18:00;94993.19;;;33.14;29.80
5691;BME280;2870;42.680;23.364;2023-07-29T09:20:36;94989.06;;;32.38;31.28
5691;BME280;2870;42.680;23.364;2023-07-29T09:23:03;94988.09;;;33.16;31.39
5691;BME280;2870;42.680;23.364;2023-07-29T09:25:33;94986.31;;;32.60;29.54
5691;BME280;2870;42.680;23.364;2023-07-29T09:28:00;94971.16;;;32.74;29.85
5691;BME280;2870;42.680;23.364;2023-07-29T09:30:27;94972.97;;;33.51;29.74
5691;BME280;2870;42.680;23.364;2023-07-29T09:32:55;94978.19;;;34.09;27.17
5691;BME280;2870;42.680;23.364;2023-07-29T09:35:22;94968.00;;;34.04;28.43
5691;BME280;2870;42.680;23.364;2023-07-29T09:37:51;94981.09;;;34.66;27.45
5691;BME280;2870;42.680;23.364;2023-07-29T09:40:18;94978.13;;;34.89;28.92
5691;BME280;2870;42.680;23.364;2023-07-29T09:42:48;94978.16;;;34.95;26.64
5691;BME280;2870;42.680;23.364;2023-07-29T09:45:24;94966.56;;;34.34;27.29
5691;BME280;2870;42.680;23.364;2023-07-29T09:47:52;94961.47;;;34.38;26.28
5691;BME280;2870;42.680;23.364;2023-07-29T09:50:23;94957.75;;;33.66;26.41
5691;BME280;2870;42.680;23.364;2023-07-29T09:52:52;94949.06;;;34.56;27.24
5691;BME280;2870;42.680;23.364;2023-07-29T09:55:22;94954.09;;;34.94;27.43
5691;BME280;2870;42.680;23.364;2023-07-29T09:57:53;94957.81;;;34.40;24.88
5691;BME280;2870;42.680;23.364;2023-07-29T10:00:20;94954.00;;;35.21;25.66
5691;BME280;2870;42.680;23.364;2023-07-29T10:02:48;94967.03;;;35.42;24.38
5691;BME280;2870;42.680;23.364;2023-07-29T10:05:15;94957.75;;;34.85;25.64
5691;BME280;2870;42.680;23.364;2023-07-29T10:07:42;94948.38;;;34.00;25.92
5691;BME280;2870;42.680;23.364;2023-07-29T10:10:11;94949.78;;;34.63;26.11
5691;BME280;2870;42.680;23.364;2023-07-29T10:12:39;94952.59;;;35.10;25.30
5691;BME280;2870;42.680;23.364;2023-07-29T10:15:08;94914.13;;;34.42;24.97
5691;BME280;2870;42.680;23.364;2023-07-29T10:17:37;94950.50;;;34.67;24.40
5691;BME280;2870;42.680;23.364;2023-07-29T10:20:05;94946.13;;;34.74;25.50
5691;BME280;2870;42.680;23.364;2023-07-29T10:22:35;94941.06;;;34.63;25.50
5691;BME280;2870;42.680;23.364;2023-07-29T10:25:04;94940.06;;;35.46;25.64
5691;BME280;2870;42.680;23.364;2023-07-29T10:27:38;94935.50;;;35.73;24.15
5691;BME280;2870;42.680;23.364;2023-07-29T10:30:09;94922.47;;;35.56;24.67
5691;BME280;2870;42.680;23.364;2023-07-29T10:32:38;94930.22;;;36.00;23.57
5691;BME280;2870;42.680;23.364;2023-07-29T10:35:08;94918.25;;;35.30;23.77
5691;BME280;2870;42.680;23.364;2023-07-29T10:37:35;94909.66;;;34.94;24.12
5691;BME280;2870;42.680;23.364;2023-07-29T10:40:06;94906.09;;;34.67;25.07
5691;BME280;2870;42.680;23.364;2023-07-29T10:42:35;94909.38;;;35.53;23.88
5691;BME280;2870;42.680;23.364;2023-07-29T10:45:17;94895.81;;;34.86;24.91
5691;BME280;2870;42.680;23.364;2023-07-29T10:47:44;94897.16;;;35.20;26.19
5691;BME280;2870;42.680;23.364;2023-07-29T10:50:17;94898.44;;;35.57;24.59
5691;BME280;2870;42.680;23.364;2023-07-29T10:52:49;94900.66;;;35.45;24.32
5691;BME280;2870;42.680;23.364;2023-07-29T10:55:25;94896.50;;;35.03;23.54
5691;BME280;2870;42.680;23.364;2023-07-29T10:58:07;94895.81;;;35.00;24.24
5691;BME280;2870;42.680;23.364;2023-07-29T11:00:35;94883.53;;;34.59;25.38
5691;BME280;2870;42.680;23.364;2023-07-29T11:03:04;94886.44;;;34.63;24.49
5691;BME280;2870;42.680;23.364;2023-07-29T11:05:49;94877.72;;;34.37;24.53
5691;BME280;2870;42.680;23.364;2023-07-29T11:08:20;94877.72;;;34.37;25.39
5691;BME280;2870;42.680;23.364;2023-07-29T11:11:13;94876.28;;;34.36;24.90
5691;BME280;2870;42.680;23.364;2023-07-29T11:13:42;94873.44;;;34.01;24.49
5691;BME280;2870;42.680;23.364;2023-07-29T11:16:10;94848.69;;;33.96;24.29
5691;BME280;2870;42.680;23.364;2023-07-29T11:18:37;94869.06;;;33.82;25.27
5691;BME280;2870;42.680;23.364;2023-07-29T11:21:05;94866.81;;;33.31;24.80
5691;BME280;2870;42.680;23.364;2023-07-29T11:23:33;94861.78;;;33.60;24.95
5691;BME280;2870;42.680;23.364;2023-07-29T11:26:00;94861.53;;;32.83;25.51
5691;BME280;2870;42.680;23.364;2023-07-29T11:28:28;94861.03;;;33.43;25.45
5691;BME280;2870;42.680;23.364;2023-07-29T11:30:57;94858.81;;;33.40;25.28
5691;BME280;2870;42.680;23.364;2023-07-29T11:33:25;94871.22;;;33.75;24.90
5691;BME280;2870;42.680;23.364;2023-07-29T11:35:53;94859.56;;;33.75;25.38
5691;BME280;2870;42.680;23.364;2023-07-29T11:38:21;94853.03;;;33.68;25.36
5691;BME280;2870;42.680;23.364;2023-07-29T11:40:58;94859.50;;;33.28;25.89
5691;BME280;2870;42.680;23.364;2023-07-29T11:43:26;94855.88;;;33.21;26.14
5691;BME280;2870;42.680;23.364;2023-07-29T11:45:53;94850.03;;;33.09;26.15
5691;BME280;2870;42.680;23.364;2023-07-29T11:48:28;94841.38;;;33.38;25.97
5691;BME280;2870;42.680;23.364;2023-07-29T11:50:55;94844.25;;;33.23;25.86
5691;BME280;2870;42.680;23.364;2023-07-29T11:53:22;94836.22;;;33.02;26.38
5691;BME280;2870;42.680;23.364;2023-07-29T11:55:50;94835.59;;;33.44;26.48
5691;BME280;2870;42.680;23.364;2023-07-29T11:58:18;94837.06;;;33.71;25.19
5691;BME280;2870;42.680;23.364;2023-07-29T12:00:45;94839.94;;;33.61;24.82
5691;BME280;2870;42.680;23.364;2023-07-29T12:03:13;94834.09;;;33.27;25.32
5691;BME280;2870;42.680;23.364;2023-07-29T12:05:43;94834.00;;;32.94;25.49
5691;BME280;2870;42.680;23.364;2023-07-29T12:08:10;94832.63;;;33.28;25.34
5691;BME280;2870;42.680;23.364;2023-07-29T12:10:37;94833.41;;;33.53;25.06
5691;BME280;2870;42.680;23.364;2023-07-29T12:13:04;94821.78;;;33.44;24.87
5691;BME280;2870;42.680;23.364;2023-07-29T12:15:31;94816.63;;;33.29;25.09
5691;BME280;2870;42.680;23.364;2023-07-29T12:17:58;94819.56;;;33.35;25.23
5691;BME280;2870;42.680;23.364;2023-07-29T12:20:26;94823.97;;;33.50;24.75
5691;BME280;2870;42.680;23.364;2023-07-29T12:22:56;94828.34;;;33.53;24.55
5691;BME280;2870;42.680;23.364;2023-07-29T12:25:23;94818.84;;;33.30;24.53
5691;BME280;2870;42.680;23.364;2023-07-29T12:27:50;94811.53;;;33.17;24.36
5691;BME280;2870;42.680;23.364;2023-07-29T12:30:20;94804.19;;;32.87;25.12
5691;BME280;2870;42.680;23.364;2023-07-29T12:32:47;94813.00;;;33.22;25.46
5691;BME280;2870;42.680;23.364;2023-07-29T12:35:14;94801.34;;;32.97;24.88
5691;BME280;2870;42.680;23.364;2023-07-29T12:37:41;94801.38;;;33.10;24.86
5691;BME280;2870;42.680;23.364;2023-07-29T12:40:21;94803.59;;;33.36;24.74
5691;BME280;2870;42.680;23.364;2023-07-29T12:42:48;94799.19;;;33.22;24.96
5691;BME280;2870;42.680;23.364;2023-07-29T12:45:16;94797.06;;;33.56;24.58
5691;BME280;2870;42.680;23.364;2023-07-29T12:47:42;94790.53;;;33.53;24.48
5691;BME280;2870;42.680;23.364;2023-07-29T12:50:09;94789.81;;;33.59;24.62
5691;BME280;2870;42.680;23.364;2023-07-29T12:52:36;94800.72;;;33.42;25.05
5691;BME280;2870;42.680;23.364;2023-07-29T12:55:03;94797.00;;;33.23;24.66
5691;BME280;2870;42.680;23.364;2023-07-29T12:57:32;94797.03;;;33.35;25.49
5691;BME280;2870;42.680;23.364;2023-07-29T12:59:58;94797.78;;;33.66;24.49
5691;BME280;2870;42.680;23.364;2023-07-29T13:02:25;94791.22;;;33.19;24.03
5691;BME280;2870;42.680;23.364;2023-07-29T13:04:52;94790.53;;;33.59;24.38
5691;BME280;2870;42.680;23.364;2023-07-29T13:07:19;94784.69;;;33.51;24.01
5691;BME280;2870;42.680;23.364;2023-07-29T13:09:45;94794.88;;;33.58;23.30
5691;BME280;2870;42.680;23.364;2023-07-29T13:12:12;94794.81;;;33.07;23.64
5691;BME280;2870;42.680;23.364;2023-07-29T13:14:40;94792.69;;;33.51;23.66
5691;BME280;2870;42.680;23.364;2023-07-29T13:17:07;94787.63;;;33.59;24.03
5691;BME280;2870;42.680;23.364;2023-07-29T13:19:34;94789.03;;;34.01;23.50